CMB806 Details

Departure: Joint Base McGuire Dix Lakehurst (KWRI)
Arrival: Thule Air Base (BGTL)
Notes: USTRANSCOM CONTRACT FLIGHT


Current Weather Information
KWRI 232256Z AUTO 17003KT 10SM FEW120 21/21 A2989 RMK AO2 SLP121 T02070207
BGTL 232256Z AUTO 00000KT 9999 CLR 05/02 A3003 RMK AO2 SLP154 T00480020 TSNO $